Time;durP1;ratioP1;P1;durP2;ratioP2;P2;SDS_P1;SDS_P2;PMS_P1;PMS_P2;Temp;Humidity;BMP_temperature;BMP_pressure;BME280_temperature;BME280_humidity;BME280_pressure;Samples;Min_cycle;Max_cycle;Signal;HPM_P1;HPM_P2
2021/11/19 00:02:15;;;;;;;245.93;228.80;;;10.30;99.90;;;;;;5054763;28;20548;-84
2021/11/19 00:04:58;;;;;;;214.57;198.65;;;10.20;99.90;;;;;;5057733;28;20656;-84
2021/11/19 00:11:24;;;;;;;;;;;;;;;;;;;;;
2021/11/19 00:17:25;;;;;;;181.32;167.20;;;10.30;99.90;;;;;;5055770;28;20176;-84
2021/11/19 00:20:26;;;;;;;;;;;;;;;;;;;;;
2021/11/19 00:23:49;;;;;;;170.68;156.85;;;10.30;99.90;;;;;;5050185;28;20197;-84
2021/11/19 00:26:59;;;;;;;;;;;;;;;;;;;;;
2021/11/19 00:29:59;;;;;;;186.40;171.40;;;10.20;99.90;;;;;;5089521;28;20197;-84
2021/11/19 00:33:09;;;;;;;181.93;166.35;;;10.30;99.90;;;;;;5097878;28;20171;-84
2021/11/19 00:36:08;;;;;;;187.75;172.88;;;10.30;99.90;;;;;;5038792;28;20279;-83
2021/11/19 00:42:24;;;;;;;167.32;153.93;;;10.30;99.90;;;;;;5055921;28;20226;-84
2021/11/19 00:51:43;;;;;;;198.48;182.07;;;10.30;99.90;;;;;;5055171;28;20168;-84
2021/11/19 00:55:11;;;;;;;177.27;162.60;;;10.20;99.90;;;;;;5015464;28;20233;-84
2021/11/19 01:02:02;;;;;;;194.50;180.07;;;10.20;99.90;;;;;;4976438;28;20210;-84
2021/11/19 01:05:00;;;;;;;174.13;159.63;;;10.20;99.90;;;;;;4966220;28;20190;-84
2021/11/19 01:08:39;;;;;;;189.98;175.73;;;10.30;99.90;;;;;;4976953;28;20174;-83
2021/11/19 01:12:08;;;;;;;177.13;162.98;;;10.30;99.90;;;;;;4957208;28;20190;-84
2021/11/19 01:15:32;;;;;;;;;;;;;;;;;;;;;
2021/11/19 01:18:53;;;;;;;176.40;162.57;;;10.30;99.90;;;;;;4956388;28;20175;-84
2021/11/19 01:22:17;;;;;;;205.30;190.02;;;10.30;99.90;;;;;;4966964;28;20176;-84
2021/11/19 01:28:40;;;;;;;165.60;152.43;;;10.40;99.90;;;;;;4957173;29;20175;-84
2021/11/19 01:31:59;;;;;;;;;;;;;;;;;;;;;
2021/11/19 01:35:04;;;;;;;;;;;;;;;;;;;;;
2021/11/19 01:41:40;;;;;;;;;;;;;;;;;;;;;
2021/11/19 01:51:56;;;;;;;161.38;147.73;;;10.30;99.90;;;;;;5038597;28;20157;-84
2021/11/19 01:55:04;;;;;;;;;;;;;;;;;;;;;
2021/11/19 02:14:25;;;;;;;185.90;171.13;;;10.30;99.90;;;;;;5027477;28;20188;-85
2021/11/19 02:17:21;;;;;;;215.52;199.85;;;10.20;99.90;;;;;;5039687;28;20185;-84
2021/11/19 02:20:07;;;;;;;244.90;227.95;;;10.20;99.90;;;;;;5063797;28;20250;-84
2021/11/19 02:30:00;;;;;;;204.05;188.88;;;10.10;99.90;;;;;;4998785;28;20201;-85
2021/11/19 02:32:56;;;;;;;276.52;258.20;;;10.10;99.90;;;;;;4984208;28;20273;-85
2021/11/19 02:39:29;;;;;;;175.55;161.45;;;10.20;99.90;;;;;;4998612;28;20229;-85
2021/11/19 02:42:20;;;;;;;226.90;210.50;;;10.20;99.90;;;;;;4999137;28;20530;-85
2021/11/19 02:46:26;;;;;;;261.50;244.75;;;10.20;99.90;;;;;;5074041;28;20608;-84
2021/11/19 02:48:41;;;;;;;247.65;231.32;;;10.20;99.90;;;;;;5039019;28;20168;-85
2021/11/19 02:52:11;;;;;;;;;;;;;;;;;;;;;
2021/11/19 02:54:38;;;;;;;257.38;240.48;;;10.10;99.90;;;;;;5186254;22;20225;-83
2021/11/19 02:57:06;;;;;;;276.97;259.13;;;10.10;99.90;;;;;;5098987;28;20649;-83
2021/11/19 02:59:41;;;;;;;278.85;261.23;;;10.10;99.90;;;;;;5098564;28;20187;-83
2021/11/19 03:02:27;;;;;;;330.50;311.02;;;10.10;99.90;;;;;;5099179;28;20529;-84
2021/11/19 03:05:00;;;;;;;340.98;320.10;;;10.20;99.90;;;;;;5098746;28;20152;-84
2021/11/19 03:07:32;;;;;;;365.08;344.10;;;10.20;99.90;;;;;;5098830;28;20219;-83
2021/11/19 03:10:06;;;;;;;340.45;320.65;;;10.10;99.90;;;;;;5096775;28;20207;-83
2021/11/19 03:12:38;;;;;;;380.00;358.45;;;10.10;99.90;;;;;;5096826;28;20221;-83
2021/11/19 03:15:24;;;;;;;355.83;335.15;;;10.00;99.90;;;;;;5098600;28;20148;-83
2021/11/19 03:17:57;;;;;;;330.88;311.67;;;10.10;99.90;;;;;;5098090;28;20151;-82
2021/11/19 03:20:53;;;;;;;320.40;301.05;;;10.10;99.90;;;;;;5097431;28;20187;-83
2021/11/19 03:23:33;;;;;;;330.65;311.20;;;10.10;99.90;;;;;;5093195;28;20185;-82
2021/11/19 03:26:01;;;;;;;348.08;328.35;;;10.10;99.90;;;;;;5096459;28;20185;-83
2021/11/19 03:28:33;;;;;;;351.90;331.63;;;10.10;99.90;;;;;;5098034;28;20160;-82
2021/11/19 03:31:07;;;;;;;341.48;321.77;;;10.10;99.90;;;;;;5096280;28;20526;-82
2021/11/19 03:33:41;;;;;;;331.17;311.63;;;10.10;99.90;;;;;;5097012;28;20522;-82
2021/11/19 03:36:12;;;;;;;314.00;295.23;;;10.10;99.90;;;;;;5096552;28;20181;-82
2021/11/19 03:38:50;;;;;;;334.88;315.30;;;10.10;99.90;;;;;;5096014;28;20194;-82
2021/11/19 03:41:20;;;;;;;300.90;283.15;;;10.10;99.90;;;;;;5097672;28;20171;-82
2021/11/19 03:44:07;;;;;;;301.17;282.85;;;10.10;99.90;;;;;;5096177;28;20295;-82
2021/11/19 03:47:02;;;;;;;283.65;266.05;;;10.00;99.90;;;;;;5096643;28;20155;-83
2021/11/19 03:49:32;;;;;;;324.65;305.83;;;10.00;99.90;;;;;;5097560;28;20194;-83
2021/11/19 03:52:20;;;;;;;310.05;291.27;;;10.10;99.90;;;;;;5097278;28;20187;-83
2021/11/19 03:54:49;;;;;;;291.33;272.98;;;10.10;99.90;;;;;;5089901;28;20207;-83
2021/11/19 03:57:20;;;;;;;323.15;303.55;;;10.10;99.90;;;;;;5096462;28;20163;-83
2021/11/19 03:59:45;;;;;;;299.80;281.13;;;10.10;99.90;;;;;;5097798;28;20190;-83
2021/11/19 04:02:20;;;;;;;284.03;266.43;;;10.10;99.90;;;;;;5097333;28;20164;-83
2021/11/19 04:04:47;;;;;;;287.25;269.73;;;10.10;99.90;;;;;;5096290;28;20463;-83
2021/11/19 04:07:18;;;;;;;302.80;284.10;;;10.10;99.90;;;;;;5094774;28;20205;-83
2021/11/19 04:09:45;;;;;;;254.15;237.90;;;10.20;99.90;;;;;;5096603;28;20233;-83
2021/11/19 04:12:13;;;;;;;272.95;255.13;;;10.20;99.90;;;;;;5095209;28;20603;-83
2021/11/19 04:14:39;;;;;;;301.67;283.05;;;10.20;99.90;;;;;;5096664;28;20672;-83
2021/11/19 04:17:06;;;;;;;280.33;262.73;;;10.10;99.90;;;;;;5096382;28;20170;-83
2021/11/19 04:19:48;;;;;;;212.60;196.70;;;10.10;99.90;;;;;;5096569;28;20195;-83
2021/11/19 04:22:17;;;;;;;289.83;272.67;;;10.10;99.90;;;;;;5095747;28;20163;-82
2021/11/19 04:24:56;;;;;;;270.38;253.68;;;10.10;99.90;;;;;;5096304;28;20184;-83
2021/11/19 04:27:31;;;;;;;275.65;257.77;;;10.20;99.90;;;;;;5095969;28;20159;-83
2021/11/19 04:29:57;;;;;;;235.52;219.77;;;10.20;99.90;;;;;;5094929;28;20187;-83
2021/11/19 04:32:23;;;;;;;246.57;230.50;;;10.20;99.90;;;;;;5096080;28;20588;-83
2021/11/19 04:34:59;;;;;;;229.95;214.13;;;10.10;99.90;;;;;;5095013;28;20167;-83
2021/11/19 04:37:28;;;;;;;298.58;279.88;;;10.10;99.90;;;;;;5096718;28;20182;-83
2021/11/19 04:39:59;;;;;;;251.57;234.82;;;10.20;99.90;;;;;;5095057;28;20257;-83
2021/11/19 04:42:24;;;;;;;258.63;242.13;;;10.20;99.90;;;;;;5096251;28;20531;-83
2021/11/19 04:44:53;;;;;;;228.77;213.30;;;10.30;99.90;;;;;;5096081;28;20167;-83
2021/11/19 04:47:22;;;;;;;254.35;237.45;;;10.20;99.90;;;;;;5094656;28;20662;-83
2021/11/19 04:49:48;;;;;;;233.25;217.55;;;10.20;99.90;;;;;;5096023;28;20194;-83
2021/11/19 04:52:17;;;;;;;234.33;217.90;;;10.20;99.90;;;;;;5094843;28;20605;-83
2021/11/19 04:54:49;;;;;;;267.52;250.43;;;10.20;99.90;;;;;;5078203;28;20237;-83
2021/11/19 04:57:16;;;;;;;304.85;286.02;;;10.20;99.90;;;;;;5095790;28;20171;-83
2021/11/19 04:59:42;;;;;;;237.75;221.90;;;10.30;99.90;;;;;;5096028;28;20577;-83
2021/11/19 05:02:12;;;;;;;239.27;223.07;;;10.20;99.90;;;;;;5094430;28;20228;-83
2021/11/19 05:04:41;;;;;;;238.45;222.85;;;10.30;99.90;;;;;;5095687;28;20166;-83
2021/11/19 05:07:07;;;;;;;253.07;236.60;;;10.20;99.90;;;;;;5095152;28;20213;-83
2021/11/19 05:09:34;;;;;;;239.10;223.13;;;10.30;99.90;;;;;;5095364;28;20316;-83
2021/11/19 05:12:13;;;;;;;238.82;222.25;;;10.30;99.90;;;;;;5095057;28;20168;-83
2021/11/19 05:14:39;;;;;;;255.25;238.65;;;10.30;99.90;;;;;;5095738;28;20159;-83
2021/11/19 05:17:07;;;;;;;218.32;203.32;;;10.30;99.90;;;;;;5094373;28;20163;-83
2021/11/19 05:19:33;;;;;;;249.02;232.45;;;10.30;99.90;;;;;;5095576;28;20187;-83
2021/11/19 05:21:59;;;;;;;241.13;224.95;;;10.30;99.90;;;;;;5094781;28;20182;-83
2021/11/19 05:24:25;;;;;;;290.27;272.80;;;10.30;99.90;;;;;;5095672;28;20160;-83
2021/11/19 05:26:53;;;;;;;239.90;223.45;;;10.30;99.90;;;;;;5094030;28;20175;-83
2021/11/19 05:29:20;;;;;;;284.70;266.48;;;10.30;99.90;;;;;;5096007;28;20183;-83
2021/11/19 05:31:50;;;;;;;212.27;197.35;;;10.30;99.90;;;;;;5094838;28;20262;-83
2021/11/19 05:34:16;;;;;;;239.00;222.93;;;10.30;99.90;;;;;;5095382;28;20163;-83
2021/11/19 05:36:46;;;;;;;224.45;208.43;;;10.30;99.90;;;;;;5094501;28;20224;-83
2021/11/19 05:39:14;;;;;;;241.65;224.98;;;10.30;99.90;;;;;;5094358;28;20258;-83
2021/11/19 05:41:40;;;;;;;216.90;200.73;;;10.30;99.90;;;;;;5095647;28;20186;-83
2021/11/19 05:44:06;;;;;;;207.73;191.77;;;10.30;99.90;;;;;;5095842;28;20622;-83
2021/11/19 05:46:39;;;;;;;200.20;185.23;;;10.30;99.90;;;;;;5096280;28;20169;-83
2021/11/19 05:49:08;;;;;;;201.40;186.02;;;10.30;99.90;;;;;;5094742;28;20537;-83
2021/11/19 05:51:34;;;;;;;178.50;164.48;;;10.30;99.90;;;;;;5095130;28;20167;-83
2021/11/19 05:54:00;;;;;;;180.88;166.55;;;10.40;99.90;;;;;;5095710;28;20186;-83
2021/11/19 05:56:26;;;;;;;179.03;164.63;;;10.40;99.90;;;;;;5094612;28;20163;-83
2021/11/19 05:58:52;;;;;;;199.38;183.73;;;10.40;99.90;;;;;;5098846;28;20203;-83
2021/11/19 06:01:20;;;;;;;163.57;149.63;;;10.40;99.90;;;;;;5100261;28;20739;-83
2021/11/19 06:03:47;;;;;;;211.68;196.40;;;10.40;99.90;;;;;;5100035;28;20851;-83
2021/11/19 06:06:14;;;;;;;198.43;183.68;;;10.40;99.90;;;;;;5099086;28;20514;-83
2021/11/19 06:08:42;;;;;;;197.15;181.55;;;10.40;99.90;;;;;;5099586;28;20175;-83
2021/11/19 06:11:30;;;;;;;202.07;186.60;;;10.40;99.90;;;;;;5098394;28;20178;-84
2021/11/19 06:13:59;;;;;;;199.95;185.00;;;10.40;99.90;;;;;;5099255;28;20183;-83
2021/11/19 06:16:44;;;;;;;205.05;189.98;;;10.40;99.90;;;;;;5099332;28;20167;-83
2021/11/19 06:19:19;;;;;;;200.25;184.73;;;10.40;99.90;;;;;;5099625;28;20554;-83
2021/11/19 06:21:50;;;;;;;207.73;192.60;;;10.40;99.90;;;;;;5098902;28;20229;-84
2021/11/19 06:24:22;;;;;;;211.50;195.68;;;10.40;99.90;;;;;;5099489;28;20151;-83
2021/11/19 06:26:48;;;;;;;210.18;194.57;;;10.40;99.90;;;;;;5098229;28;20182;-83
2021/11/19 06:29:17;;;;;;;184.70;170.38;;;10.40;99.90;;;;;;5097940;28;20187;-84
2021/11/19 06:31:48;;;;;;;189.02;174.70;;;10.40;99.90;;;;;;5097870;28;20189;-83
2021/11/19 06:34:14;;;;;;;173.57;159.48;;;10.40;99.90;;;;;;5099265;28;20162;-83
2021/11/19 06:36:41;;;;;;;177.20;163.23;;;10.40;99.90;;;;;;5099010;28;20224;-83
2021/11/19 06:39:09;;;;;;;225.05;209.18;;;10.40;99.90;;;;;;5098595;28;20546;-83
2021/11/19 06:41:35;;;;;;;262.05;244.18;;;10.50;99.90;;;;;;5099821;28;20226;-83
2021/11/19 06:44:01;;;;;;;185.35;170.73;;;10.50;99.90;;;;;;5098504;28;20167;-83
2021/11/19 06:46:30;;;;;;;176.77;162.67;;;10.40;99.90;;;;;;5099520;28;20186;-84
2021/11/19 06:48:56;;;;;;;179.20;164.75;;;10.40;99.90;;;;;;5098470;28;20179;-83
2021/11/19 06:51:22;;;;;;;204.10;188.23;;;10.40;99.90;;;;;;5098130;28;20232;-83
2021/11/19 06:53:49;;;;;;;170.35;156.25;;;10.50;99.90;;;;;;5099334;28;20182;-84
2021/11/19 06:56:17;;;;;;;196.23;180.75;;;10.40;99.90;;;;;;5098832;28;20174;-83
2021/11/19 06:58:43;;;;;;;177.98;163.80;;;10.40;99.90;;;;;;5098574;28;20266;-84
2021/11/19 07:01:11;;;;;;;180.13;166.23;;;10.40;99.90;;;;;;5098744;28;20678;-83
2021/11/19 07:03:37;;;;;;;190.27;175.85;;;10.40;99.90;;;;;;5098247;28;20634;-84
2021/11/19 07:06:03;;;;;;;210.87;195.60;;;10.50;99.90;;;;;;5098016;28;20170;-84
2021/11/19 07:08:35;;;;;;;185.95;171.70;;;10.50;99.90;;;;;;5098190;28;20183;-83
2021/11/19 07:11:05;;;;;;;187.30;172.75;;;10.40;99.90;;;;;;5098330;28;20167;-83
2021/11/19 07:13:31;;;;;;;170.80;156.18;;;10.40;99.90;;;;;;5098824;28;20167;-83
2021/11/19 07:15:57;;;;;;;158.10;144.43;;;10.40;99.90;;;;;;5099227;28;20239;-84
2021/11/19 07:18:23;;;;;;;164.50;150.70;;;10.40;99.90;;;;;;5098645;28;20176;-83
2021/11/19 07:20:51;;;;;;;168.27;154.37;;;10.40;99.90;;;;;;5098481;28;20539;-81
2021/11/19 07:23:20;;;;;;;165.02;151.48;;;10.40;99.90;;;;;;5097928;28;20397;-83
2021/11/19 07:25:46;;;;;;;153.05;139.60;;;10.50;99.90;;;;;;5097692;28;20167;-83
2021/11/19 07:28:16;;;;;;;171.60;157.50;;;10.50;99.90;;;;;;5098174;28;20181;-83
2021/11/19 07:30:52;;;;;;;177.20;162.63;;;10.50;99.90;;;;;;5097407;28;20213;-83
2021/11/19 07:33:20;;;;;;;156.05;142.77;;;10.50;99.90;;;;;;5098516;28;20517;-83
2021/11/19 07:35:47;;;;;;;136.02;123.40;;;10.50;99.90;;;;;;5098374;28;20171;-83
2021/11/19 07:38:17;;;;;;;169.80;155.90;;;10.50;99.90;;;;;;5098213;28;20171;-83
2021/11/19 07:40:45;;;;;;;172.00;157.30;;;10.50;99.90;;;;;;5097931;28;20194;-83
2021/11/19 07:43:15;;;;;;;163.25;149.73;;;10.50;99.90;;;;;;5097594;28;20198;-83
2021/11/19 07:45:41;;;;;;;147.02;134.10;;;10.60;99.90;;;;;;5097250;28;20191;-84
2021/11/19 07:48:11;;;;;;;149.45;135.77;;;10.50;99.90;;;;;;5098824;28;20252;-84
2021/11/19 07:50:39;;;;;;;135.73;122.72;;;10.50;99.90;;;;;;5097695;28;20681;-84
2021/11/19 07:53:08;;;;;;;131.73;119.15;;;10.50;99.90;;;;;;5098374;28;20167;-83
2021/11/19 07:55:38;;;;;;;139.32;126.70;;;10.60;99.90;;;;;;5099040;28;20162;-84
2021/11/19 07:58:07;;;;;;;157.38;144.02;;;10.60;99.90;;;;;;5097567;28;20171;-83
2021/11/19 08:00:39;;;;;;;159.10;145.38;;;10.60;99.90;;;;;;5096463;28;20195;-83
2021/11/19 08:03:05;;;;;;;165.80;151.73;;;10.60;99.90;;;;;;5099174;28;20143;-83
2021/11/19 08:05:31;;;;;;;154.30;141.23;;;10.60;99.90;;;;;;5097094;28;20174;-84
2021/11/19 08:07:59;;;;;;;144.35;131.52;;;10.60;99.90;;;;;;5097141;28;20405;-84
2021/11/19 08:10:33;;;;;;;143.20;130.50;;;10.60;99.90;;;;;;5096694;28;20182;-84
2021/11/19 08:12:59;;;;;;;151.38;138.13;;;10.60;99.90;;;;;;5097527;28;20159;-84
2021/11/19 08:15:29;;;;;;;173.95;159.98;;;10.60;99.90;;;;;;5097364;28;20526;-84
2021/11/19 08:17:56;;;;;;;184.82;170.57;;;10.60;99.90;;;;;;5096565;28;20182;-83
2021/11/19 08:20:44;;;;;;;153.63;140.52;;;10.60;99.90;;;;;;5096645;28;20195;-84
2021/11/19 08:23:23;;;;;;;173.55;159.70;;;10.60;99.90;;;;;;5097777;28;20728;-84
2021/11/19 08:25:50;;;;;;;174.95;161.13;;;10.70;99.90;;;;;;5098454;28;20151;-83
2021/11/19 08:28:16;;;;;;;176.20;162.32;;;10.70;99.90;;;;;;5099102;28;20160;-84
2021/11/19 08:30:47;;;;;;;171.68;158.00;;;10.80;99.90;;;;;;5098633;28;20646;-84
2021/11/19 08:33:16;;;;;;;182.43;168.52;;;10.80;99.90;;;;;;5097304;28;20321;-83
2021/11/19 08:36:05;;;;;;;186.95;172.88;;;10.80;99.90;;;;;;5096848;28;20174;-84
2021/11/19 08:38:33;;;;;;;191.30;176.27;;;10.80;99.90;;;;;;5097268;28;20704;-84
2021/11/19 08:41:13;;;;;;;;;;;;;;;;;;;;;
2021/11/19 08:44:28;;;;;;;189.15;174.68;;;10.80;99.90;;;;;;5095298;28;20176;-83
2021/11/19 08:47:25;;;;;;;186.48;172.23;;;10.80;99.90;;;;;;5098012;28;20193;-84
2021/11/19 08:50:23;;;;;;;176.20;161.70;;;10.80;99.90;;;;;;5098019;28;20201;-84
2021/11/19 08:55:40;;;;;;;174.93;160.90;;;10.90;99.90;;;;;;5061868;28;20208;-85
2021/11/19 08:58:06;;;;;;;171.07;157.30;;;10.90;99.90;;;;;;5047385;28;20167;-85
2021/11/19 09:00:36;;;;;;;198.25;183.05;;;10.90;99.90;;;;;;5064615;28;20209;-85
2021/11/19 09:03:07;;;;;;;191.90;177.48;;;10.90;99.90;;;;;;5065077;28;20160;-85
2021/11/19 09:05:35;;;;;;;154.60;141.38;;;11.00;99.90;;;;;;5047016;28;20154;-85
2021/11/19 09:08:03;;;;;;;193.48;178.82;;;11.00;99.90;;;;;;5063217;28;20168;-85
2021/11/19 09:10:29;;;;;;;173.73;159.90;;;11.00;99.90;;;;;;5063871;28;20204;-85
2021/11/19 09:12:55;;;;;;;165.00;151.05;;;11.00;99.90;;;;;;5063602;28;20232;-85
2021/11/19 09:15:23;;;;;;;170.73;157.00;;;11.10;99.90;;;;;;5063992;28;20639;-85
2021/11/19 09:17:57;;;;;;;190.68;176.02;;;11.10;99.90;;;;;;5064122;28;20164;-85
2021/11/19 09:21:01;;;;;;;176.65;162.75;;;11.10;99.90;;;;;;5063878;28;20211;-85
2021/11/19 09:23:31;;;;;;;188.55;173.82;;;11.10;99.90;;;;;;5042317;28;20180;-85
2021/11/19 09:25:59;;;;;;;157.27;144.02;;;11.10;99.90;;;;;;5045866;28;20165;-85
2021/11/19 09:28:28;;;;;;;166.40;152.48;;;11.10;99.90;;;;;;5063761;28;20184;-85
2021/11/19 09:31:02;;;;;;;174.85;160.68;;;11.20;99.90;;;;;;5063861;28;20183;-85
2021/11/19 09:33:28;;;;;;;181.68;167.25;;;11.20;99.90;;;;;;5063749;28;20162;-85
2021/11/19 09:35:56;;;;;;;158.45;144.85;;;11.20;99.90;;;;;;5045900;28;20168;-85
2021/11/19 09:38:24;;;;;;;149.00;136.15;;;11.20;99.90;;;;;;5063607;28;20160;-85
2021/11/19 09:41:25;;;;;;;170.30;156.23;;;11.20;99.90;;;;;;5046497;28;20202;-85
2021/11/19 09:44:26;;;;;;;157.88;144.65;;;11.30;99.90;;;;;;5061087;28;20165;-85
2021/11/19 09:47:07;;;;;;;155.05;141.98;;;11.40;99.90;;;;;;5060890;28;20535;-85
2021/11/19 09:49:55;;;;;;;178.45;164.13;;;11.40;99.90;;;;;;5059387;28;20184;-85
2021/11/19 09:52:58;;;;;;;191.50;177.30;;;11.40;99.90;;;;;;5023640;28;20191;-85
2021/11/19 09:55:55;;;;;;;183.93;169.43;;;11.40;99.90;;;;;;5060728;28;20183;-85
2021/11/19 09:58:32;;;;;;;193.15;178.98;;;11.40;99.90;;;;;;5060632;28;20165;-84
2021/11/19 10:00:57;;;;;;;202.20;187.10;;;11.40;99.90;;;;;;5061784;28;20186;-85
2021/11/19 10:03:44;;;;;;;191.27;177.07;;;11.40;99.90;;;;;;5044414;28;20170;-85
2021/11/19 10:06:20;;;;;;;190.00;175.82;;;11.40;99.90;;;;;;5043860;28;20161;-85
2021/11/19 10:08:58;;;;;;;195.60;181.07;;;11.40;99.90;;;;;;5042319;28;20191;-85
2021/11/19 10:11:36;;;;;;;201.13;186.52;;;11.60;99.90;;;;;;5045880;28;20175;-85
2021/11/19 10:14:27;;;;;;;211.57;196.27;;;11.60;99.90;;;;;;5063560;28;20157;-85
2021/11/19 10:16:58;;;;;;;198.75;184.27;;;11.50;99.90;;;;;;5063916;28;20170;-85
2021/11/19 10:19:31;;;;;;;252.43;235.85;;;11.50;99.90;;;;;;5045483;28;20193;-85
2021/11/19 10:22:23;;;;;;;201.32;186.77;;;11.60;99.90;;;;;;5063945;28;20171;-85
2021/11/19 10:25:20;;;;;;;188.88;174.88;;;11.60;99.90;;;;;;5045394;28;20153;-85
2021/11/19 10:27:53;;;;;;;228.88;212.90;;;11.60;99.90;;;;;;5064031;28;20169;-85
2021/11/19 10:30:40;;;;;;;175.35;161.80;;;11.60;99.90;;;;;;5062728;28;20184;-85
2021/11/19 10:33:18;;;;;;;209.48;194.68;;;11.60;99.90;;;;;;5063567;28;20172;-85
2021/11/19 10:36:07;;;;;;;212.88;198.13;;;11.60;99.90;;;;;;5063229;28;20248;-85
2021/11/19 10:38:58;;;;;;;185.73;171.85;;;11.70;99.90;;;;;;5045618;28;20220;-85
2021/11/19 10:42:09;;;;;;;169.88;156.40;;;11.70;99.90;;;;;;5062259;28;20180;-85
2021/11/19 10:45:01;;;;;;;162.45;149.40;;;11.60;99.90;;;;;;5048376;28;20603;-85
2021/11/19 10:47:41;;;;;;;218.10;202.77;;;11.70;99.90;;;;;;5067114;28;20145;-85
2021/11/19 10:50:31;;;;;;;176.40;162.88;;;11.70;99.90;;;;;;5066439;28;20180;-85
2021/11/19 10:53:24;;;;;;;159.70;146.48;;;11.70;99.90;;;;;;5067078;28;20231;-85
2021/11/19 10:56:27;;;;;;;188.90;174.70;;;11.60;99.90;;;;;;5066441;28;20252;-85
2021/11/19 10:58:58;;;;;;;167.77;154.45;;;11.60;99.90;;;;;;5065739;28;20735;-85
2021/11/19 11:01:37;;;;;;;214.13;199.38;;;11.60;99.90;;;;;;5047779;28;20200;-85
2021/11/19 11:04:29;;;;;;;197.85;183.57;;;11.60;99.90;;;;;;5065512;28;20160;-85
2021/11/19 11:07:25;;;;;;;192.73;178.65;;;11.60;99.90;;;;;;5066602;28;20152;-85
2021/11/19 11:10:28;;;;;;;212.48;197.77;;;11.60;99.90;;;;;;5066142;28;20225;-85
2021/11/19 11:12:54;;;;;;;198.85;184.50;;;11.60;99.90;;;;;;4983355;28;20180;-84
2021/11/19 11:15:31;;;;;;;230.52;214.65;;;11.60;99.90;;;;;;5063157;28;20223;-85
2021/11/19 11:18:31;;;;;;;205.00;190.60;;;11.60;99.90;;;;;;5065688;28;20274;-85
2021/11/19 11:21:03;;;;;;;207.70;193.02;;;11.60;99.90;;;;;;5063781;28;20176;-84
2021/11/19 11:24:06;;;;;;;218.43;203.13;;;11.60;99.90;;;;;;5063383;28;20153;-85
2021/11/19 11:26:38;;;;;;;219.93;204.57;;;11.60;99.90;;;;;;5045504;28;20195;-84
2021/11/19 11:29:16;;;;;;;202.60;188.27;;;11.60;99.90;;;;;;5063218;28;20249;-85
2021/11/19 11:32:19;;;;;;;195.20;181.05;;;11.60;99.90;;;;;;5063372;28;20227;-85
2021/11/19 11:34:56;;;;;;;200.15;185.85;;;11.60;99.90;;;;;;5063034;28;20156;-85
2021/11/19 11:38:03;;;;;;;201.68;187.38;;;11.60;99.90;;;;;;5062691;28;20149;-84
2021/11/19 11:41:07;;;;;;;200.45;185.82;;;11.60;99.90;;;;;;5044561;28;20201;-85
2021/11/19 11:44:02;;;;;;;229.82;213.88;;;11.60;99.90;;;;;;5064763;28;20156;-85
2021/11/19 11:46:54;;;;;;;232.82;216.90;;;11.60;99.90;;;;;;5065293;28;20149;-85
2021/11/19 11:49:36;;;;;;;217.90;202.38;;;11.60;99.90;;;;;;5047741;28;20192;-85
2021/11/19 11:52:13;;;;;;;204.57;189.73;;;11.60;99.90;;;;;;5066740;28;20153;-85
2021/11/19 11:54:57;;;;;;;193.00;178.80;;;11.70;99.90;;;;;;5064332;28;20562;-85
2021/11/19 11:57:29;;;;;;;193.95;179.68;;;11.70;99.90;;;;;;5066308;28;20160;-85
2021/11/19 12:00:29;;;;;;;210.48;194.88;;;11.70;99.90;;;;;;5047044;28;20264;-85
2021/11/19 12:03:22;;;;;;;214.73;199.07;;;11.80;99.90;;;;;;5065581;28;20141;-85
2021/11/19 12:05:59;;;;;;;196.35;181.75;;;11.80;99.90;;;;;;5066034;28;20160;-85
2021/11/19 12:08:35;;;;;;;201.40;186.40;;;11.80;99.90;;;;;;5065733;28;20203;-84
2021/11/19 12:11:24;;;;;;;209.88;194.40;;;11.70;99.90;;;;;;5066779;28;20171;-84
2021/11/19 12:14:05;;;;;;;165.50;151.85;;;11.80;99.90;;;;;;5031667;28;20161;-85
2021/11/19 12:17:14;;;;;;;164.00;150.63;;;11.80;99.90;;;;;;5065846;28;20247;-84
2021/11/19 12:19:56;;;;;;;158.35;145.10;;;11.80;99.90;;;;;;5065823;28;20200;-84
2021/11/19 12:22:58;;;;;;;154.82;141.63;;;11.80;99.90;;;;;;5048190;28;20152;-85
2021/11/19 12:25:42;;;;;;;140.52;127.75;;;11.80;99.90;;;;;;5066179;28;20609;-84
2021/11/19 12:28:27;;;;;;;164.63;151.02;;;11.80;99.90;;;;;;5066191;28;20260;-84
2021/11/19 12:31:09;;;;;;;170.10;155.85;;;11.80;99.90;;;;;;5066034;28;20144;-84
2021/11/19 12:33:49;;;;;;;147.75;134.75;;;11.80;99.90;;;;;;5047356;28;20180;-84
2021/11/19 12:36:41;;;;;;;166.93;153.00;;;11.90;99.90;;;;;;5063178;28;20156;-84
2021/11/19 12:39:10;;;;;;;153.80;140.73;;;11.90;99.90;;;;;;5066222;28;20276;-84
2021/11/19 12:41:48;;;;;;;159.20;145.90;;;12.00;99.90;;;;;;5065593;28;20200;-84
2021/11/19 12:44:32;;;;;;;134.98;122.07;;;12.00;99.90;;;;;;5048024;28;20164;-84
2021/11/19 12:47:29;;;;;;;136.10;123.65;;;12.00;99.90;;;;;;5048404;28;20210;-84
2021/11/19 12:50:16;;;;;;;130.73;118.63;;;12.10;99.90;;;;;;5047398;28;20246;-84
2021/11/19 12:53:13;;;;;;;162.15;148.13;;;12.10;99.90;;;;;;5063467;28;20148;-84
2021/11/19 12:55:58;;;;;;;139.13;125.88;;;12.10;99.90;;;;;;5034949;28;20679;-84
2021/11/19 12:58:34;;;;;;;145.90;132.45;;;12.10;99.90;;;;;;5063804;28;20225;-84
2021/11/19 13:01:22;;;;;;;145.40;132.25;;;12.10;99.90;;;;;;5047733;28;20199;-84
2021/11/19 13:03:48;;;;;;;129.40;116.80;;;12.10;99.90;;;;;;5064870;28;20174;-84
2021/11/19 13:06:32;;;;;;;144.03;131.10;;;12.10;99.90;;;;;;5064664;28;20220;-84
2021/11/19 13:09:22;;;;;;;141.50;128.52;;;12.10;99.90;;;;;;5065110;28;20693;-84
2021/11/19 13:12:34;;;;;;;144.93;132.10;;;12.10;99.90;;;;;;5047826;28;20164;-84
2021/11/19 13:15:28;;;;;;;151.63;137.98;;;12.10;99.90;;;;;;5064957;28;20149;-84
2021/11/19 13:18:23;;;;;;;157.90;144.48;;;12.10;99.90;;;;;;5047900;28;20199;-84
2021/11/19 13:21:30;;;;;;;;;;;;;;;;;;;;;
2021/11/19 13:24:23;;;;;;;154.90;141.70;;;12.00;99.90;;;;;;5064925;28;20595;-84
2021/11/19 13:27:20;;;;;;;146.90;133.90;;;12.00;99.90;;;;;;4968287;28;20171;-84
2021/11/19 13:30:15;;;;;;;139.88;127.03;;;12.00;99.90;;;;;;5036416;28;20200;-84
2021/11/19 13:32:49;;;;;;;159.77;146.43;;;12.00;99.90;;;;;;5064972;28;20199;-84
2021/11/19 13:35:34;;;;;;;157.27;143.88;;;12.00;99.90;;;;;;5064927;28;20148;-84
2021/11/19 13:38:00;;;;;;;144.50;131.02;;;12.00;99.90;;;;;;5064846;28;20176;-85
2021/11/19 13:40:29;;;;;;;130.63;118.50;;;12.00;99.90;;;;;;5064881;28;20200;-84
2021/11/19 13:43:13;;;;;;;153.95;140.65;;;12.00;99.90;;;;;;5064625;28;20152;-84
2021/11/19 13:45:39;;;;;;;139.52;126.65;;;12.00;99.90;;;;;;5064407;28;20213;-84
2021/11/19 13:48:40;;;;;;;139.33;125.93;;;12.00;99.90;;;;;;5064135;28;20156;-84
2021/11/19 13:51:14;;;;;;;143.60;130.00;;;11.90;99.90;;;;;;5062508;28;20243;-84
2021/11/19 13:53:59;;;;;;;148.13;134.95;;;11.80;99.90;;;;;;5062081;28;20156;-84
2021/11/19 13:56:38;;;;;;;145.93;132.65;;;11.90;99.90;;;;;;5063059;28;20157;-84
2021/11/19 13:59:27;;;;;;;150.85;137.65;;;11.90;99.90;;;;;;5064611;28;20210;-84
2021/11/19 14:02:26;;;;;;;145.88;133.02;;;11.90;99.90;;;;;;5046136;28;20183;-85
2021/11/19 14:04:55;;;;;;;150.75;137.40;;;11.90;99.90;;;;;;5065440;28;20228;-84
2021/11/19 14:07:47;;;;;;;149.88;136.88;;;11.90;99.90;;;;;;5046758;28;20172;-84
2021/11/19 14:10:26;;;;;;;156.25;142.95;;;11.90;99.90;;;;;;5065192;28;20188;-84
2021/11/19 14:13:04;;;;;;;139.25;126.40;;;11.90;99.90;;;;;;5065055;28;20156;-84
2021/11/19 14:16:06;;;;;;;155.02;141.35;;;11.90;99.90;;;;;;5044402;28;20184;-84
2021/11/19 14:18:46;;;;;;;146.90;133.88;;;11.90;99.90;;;;;;4975773;28;20198;-84
2021/11/19 14:24:40;;;;;;;156.07;142.50;;;11.90;99.90;;;;;;5066904;28;20152;-84
2021/11/19 14:27:27;;;;;;;151.13;137.93;;;12.00;99.90;;;;;;5066678;28;20145;-84
2021/11/19 14:30:05;;;;;;;156.90;143.40;;;11.90;99.90;;;;;;5048934;28;20315;-84
2021/11/19 14:32:35;;;;;;;166.95;153.10;;;12.00;99.90;;;;;;5048389;28;20562;-84
2021/11/19 14:35:18;;;;;;;152.77;139.00;;;12.00;99.90;;;;;;5048319;28;20174;-84